sensor_id;sensor_type;location;lat;lon;timestamp;temperature;humidity
18287;DHT22;9269;50.838;12.094;2022-09-11T00:01:41;19.70;48.10
18287;DHT22;9269;50.838;12.094;2022-09-11T00:04:10;19.70;47.80
18287;DHT22;9269;50.838;12.094;2022-09-11T00:06:38;19.80;47.90
18287;DHT22;9269;50.838;12.094;2022-09-11T00:09:08;19.70;47.80
18287;DHT22;9269;50.838;12.094;2022-09-11T00:11:39;19.70;47.70
18287;DHT22;9269;50.838;12.094;2022-09-11T00:14:09;19.70;47.60
18287;DHT22;9269;50.838;12.094;2022-09-11T00:16:40;19.60;47.60
18287;DHT22;9269;50.838;12.094;2022-09-11T00:19:12;19.70;47.40
18287;DHT22;9269;50.838;12.094;2022-09-11T00:21:42;19.60;47.40
18287;DHT22;9269;50.838;12.094;2022-09-11T00:24:12;19.60;47.40
18287;DHT22;9269;50.838;12.094;2022-09-11T00:26:41;19.60;47.60
18287;DHT22;9269;50.838;12.094;2022-09-11T00:29:09;19.50;47.90
18287;DHT22;9269;50.838;12.094;2022-09-11T00:31:38;19.60;48.00
18287;DHT22;9269;50.838;12.094;2022-09-11T00:34:07;19.50;47.40
18287;DHT22;9269;50.838;12.094;2022-09-11T00:36:35;19.60;47.40
18287;DHT22;9269;50.838;12.094;2022-09-11T00:39:08;19.50;47.40
18287;DHT22;9269;50.838;12.094;2022-09-11T00:41:40;19.50;47.00
18287;DHT22;9269;50.838;12.094;2022-09-11T00:47:13;19.50;47.40
18287;DHT22;9269;50.838;12.094;2022-09-11T00:49:45;19.50;47.60
18287;DHT22;9269;50.838;12.094;2022-09-11T00:52:18;19.50;48.10
18287;DHT22;9269;50.838;12.094;2022-09-11T00:54:50;19.50;48.60
18287;DHT22;9269;50.838;12.094;2022-09-11T00:57:23;19.50;48.70
18287;DHT22;9269;50.838;12.094;2022-09-11T00:59:54;19.50;48.40
18287;DHT22;9269;50.838;12.094;2022-09-11T01:02:27;19.40;48.60
18287;DHT22;9269;50.838;12.094;2022-09-11T01:04:58;19.40;48.50
18287;DHT22;9269;50.838;12.094;2022-09-11T01:07:28;19.30;48.20
18287;DHT22;9269;50.838;12.094;2022-09-11T01:09:58;19.30;48.20
18287;DHT22;9269;50.838;12.094;2022-09-11T01:12:32;19.40;48.30
18287;DHT22;9269;50.838;12.094;2022-09-11T01:15:05;19.40;48.70
18287;DHT22;9269;50.838;12.094;2022-09-11T01:17:41;19.30;48.30
18287;DHT22;9269;50.838;12.094;2022-09-11T01:20:24;19.30;48.50
18287;DHT22;9269;50.838;12.094;2022-09-11T01:23:19;19.30;48.50
18287;DHT22;9269;50.838;12.094;2022-09-11T01:26:05;19.30;48.50
18287;DHT22;9269;50.838;12.094;2022-09-11T01:28:40;19.30;48.50
18287;DHT22;9269;50.838;12.094;2022-09-11T01:31:16;19.30;48.80
18287;DHT22;9269;50.838;12.094;2022-09-11T01:33:51;19.30;48.90
18287;DHT22;9269;50.838;12.094;2022-09-11T01:36:27;19.30;48.90
18287;DHT22;9269;50.838;12.094;2022-09-11T01:38:58;19.30;48.90
18287;DHT22;9269;50.838;12.094;2022-09-11T01:41:31;19.30;48.80
18287;DHT22;9269;50.838;12.094;2022-09-11T01:44:05;19.30;48.70
18287;DHT22;9269;50.838;12.094;2022-09-11T01:46:39;19.20;48.60
18287;DHT22;9269;50.838;12.094;2022-09-11T01:49:14;19.20;48.80
18287;DHT22;9269;50.838;12.094;2022-09-11T01:51:45;19.20;48.90
18287;DHT22;9269;50.838;12.094;2022-09-11T01:54:16;19.20;48.90
18287;DHT22;9269;50.838;12.094;2022-09-11T01:56:47;19.30;49.20
18287;DHT22;9269;50.838;12.094;2022-09-11T01:59:22;19.20;48.80
18287;DHT22;9269;50.838;12.094;2022-09-11T02:01:59;19.30;49.10
18287;DHT22;9269;50.838;12.094;2022-09-11T02:04:32;19.20;48.70
18287;DHT22;9269;50.838;12.094;2022-09-11T02:07:07;19.30;49.20
18287;DHT22;9269;50.838;12.094;2022-09-11T02:09:40;19.20;49.10
18287;DHT22;9269;50.838;12.094;2022-09-11T02:12:12;19.20;48.70
18287;DHT22;9269;50.838;12.094;2022-09-11T02:14:45;19.20;49.00
18287;DHT22;9269;50.838;12.094;2022-09-11T02:17:22;19.30;48.90
18287;DHT22;9269;50.838;12.094;2022-09-11T02:19:55;19.20;49.30
18287;DHT22;9269;50.838;12.094;2022-09-11T02:22:25;19.20;49.00
18287;DHT22;9269;50.838;12.094;2022-09-11T02:24:54;19.30;48.90
18287;DHT22;9269;50.838;12.094;2022-09-11T02:27:25;19.20;48.70
18287;DHT22;9269;50.838;12.094;2022-09-11T02:29:55;19.20;48.80
18287;DHT22;9269;50.838;12.094;2022-09-11T02:32:25;19.20;48.90
18287;DHT22;9269;50.838;12.094;2022-09-11T02:34:54;19.30;48.90
18287;DHT22;9269;50.838;12.094;2022-09-11T02:37:31;19.20;49.30
18287;DHT22;9269;50.838;12.094;2022-09-11T02:40:17;19.20;48.80
18287;DHT22;9269;50.838;12.094;2022-09-11T02:43:03;19.30;49.20
18287;DHT22;9269;50.838;12.094;2022-09-11T02:50:21;19.30;49.00
18287;DHT22;9269;50.838;12.094;2022-09-11T02:52:57;19.20;48.90
18287;DHT22;9269;50.838;12.094;2022-09-11T02:55:37;19.20;49.20
18287;DHT22;9269;50.838;12.094;2022-09-11T02:58:12;19.20;49.00
18287;DHT22;9269;50.838;12.094;2022-09-11T03:00:43;19.10;49.20
18287;DHT22;9269;50.838;12.094;2022-09-11T03:03:14;19.20;49.50
18287;DHT22;9269;50.838;12.094;2022-09-11T03:05:44;19.20;49.30
18287;DHT22;9269;50.838;12.094;2022-09-11T03:08:12;19.20;49.40
18287;DHT22;9269;50.838;12.094;2022-09-11T03:10:43;19.30;49.70
18287;DHT22;9269;50.838;12.094;2022-09-11T03:13:13;19.20;49.40
18287;DHT22;9269;50.838;12.094;2022-09-11T03:15:41;19.30;49.30
18287;DHT22;9269;50.838;12.094;2022-09-11T03:18:11;19.30;49.60
18287;DHT22;9269;50.838;12.094;2022-09-11T03:20:44;19.30;49.90
18287;DHT22;9269;50.838;12.094;2022-09-11T03:23:13;19.30;49.50
18287;DHT22;9269;50.838;12.094;2022-09-11T03:25:42;19.30;49.80
18287;DHT22;9269;50.838;12.094;2022-09-11T03:28:10;19.30;50.20
18287;DHT22;9269;50.838;12.094;2022-09-11T03:30:39;19.30;50.30
18287;DHT22;9269;50.838;12.094;2022-09-11T03:33:08;19.30;50.00
18287;DHT22;9269;50.838;12.094;2022-09-11T03:35:37;19.30;49.90
18287;DHT22;9269;50.838;12.094;2022-09-11T03:38:06;19.30;49.70
18287;DHT22;9269;50.838;12.094;2022-09-11T03:40:35;19.30;49.60
18287;DHT22;9269;50.838;12.094;2022-09-11T03:43:04;19.30;49.70
18287;DHT22;9269;50.838;12.094;2022-09-11T03:45:32;19.40;50.10
18287;DHT22;9269;50.838;12.094;2022-09-11T03:48:01;19.30;50.00
18287;DHT22;9269;50.838;12.094;2022-09-11T03:50:29;19.30;50.70
18287;DHT22;9269;50.838;12.094;2022-09-11T03:52:57;19.30;50.30
18287;DHT22;9269;50.838;12.094;2022-09-11T03:55:27;19.30;50.20
18287;DHT22;9269;50.838;12.094;2022-09-11T03:57:58;19.30;50.00
18287;DHT22;9269;50.838;12.094;2022-09-11T04:00:27;19.30;50.20
18287;DHT22;9269;50.838;12.094;2022-09-11T04:02:56;19.30;49.90
18287;DHT22;9269;50.838;12.094;2022-09-11T04:05:24;19.30;50.00
18287;DHT22;9269;50.838;12.094;2022-09-11T04:07:53;19.30;50.00
18287;DHT22;9269;50.838;12.094;2022-09-11T04:10:22;19.30;50.30
18287;DHT22;9269;50.838;12.094;2022-09-11T04:12:51;19.30;49.90
18287;DHT22;9269;50.838;12.094;2022-09-11T04:15:19;19.30;49.90
18287;DHT22;9269;50.838;12.094;2022-09-11T04:17:48;19.30;50.50
18287;DHT22;9269;50.838;12.094;2022-09-11T04:20:16;19.20;50.10
18287;DHT22;9269;50.838;12.094;2022-09-11T04:22:45;19.30;50.90
18287;DHT22;9269;50.838;12.094;2022-09-11T04:25:14;19.20;51.20
18287;DHT22;9269;50.838;12.094;2022-09-11T04:27:42;19.30;50.80
18287;DHT22;9269;50.838;12.094;2022-09-11T04:30:12;19.30;50.90
18287;DHT22;9269;50.838;12.094;2022-09-11T04:32:41;19.40;51.40
18287;DHT22;9269;50.838;12.094;2022-09-11T04:35:10;19.30;51.20
18287;DHT22;9269;50.838;12.094;2022-09-11T04:37:39;19.30;50.80
18287;DHT22;9269;50.838;12.094;2022-09-11T04:40:08;19.40;50.80
18287;DHT22;9269;50.838;12.094;2022-09-11T04:42:37;19.40;51.30
18287;DHT22;9269;50.838;12.094;2022-09-11T04:45:06;19.40;51.10
18287;DHT22;9269;50.838;12.094;2022-09-11T04:47:35;19.40;51.60
18287;DHT22;9269;50.838;12.094;2022-09-11T04:50:06;19.40;51.40
18287;DHT22;9269;50.838;12.094;2022-09-11T04:52:34;19.40;51.80
18287;DHT22;9269;50.838;12.094;2022-09-11T04:55:02;19.40;51.60
18287;DHT22;9269;50.838;12.094;2022-09-11T04:57:32;19.40;51.60
18287;DHT22;9269;50.838;12.094;2022-09-11T05:00:01;19.40;51.80
18287;DHT22;9269;50.838;12.094;2022-09-11T05:02:31;19.40;51.50
18287;DHT22;9269;50.838;12.094;2022-09-11T05:05:01;19.30;51.40
18287;DHT22;9269;50.838;12.094;2022-09-11T05:07:29;19.40;51.80
18287;DHT22;9269;50.838;12.094;2022-09-11T05:09:57;19.30;51.80
18287;DHT22;9269;50.838;12.094;2022-09-11T05:12:26;19.30;52.00
18287;DHT22;9269;50.838;12.094;2022-09-11T05:14:54;19.30;51.90
18287;DHT22;9269;50.838;12.094;2022-09-11T05:17:22;19.30;52.40
18287;DHT22;9269;50.838;12.094;2022-09-11T05:19:51;19.30;51.50
18287;DHT22;9269;50.838;12.094;2022-09-11T05:22:20;19.30;52.00
18287;DHT22;9269;50.838;12.094;2022-09-11T05:24:49;19.40;52.00
18287;DHT22;9269;50.838;12.094;2022-09-11T05:27:18;19.30;51.90
18287;DHT22;9269;50.838;12.094;2022-09-11T05:29:46;19.40;51.40
18287;DHT22;9269;50.838;12.094;2022-09-11T05:32:14;19.40;51.70
18287;DHT22;9269;50.838;12.094;2022-09-11T05:34:43;19.50;51.60
18287;DHT22;9269;50.838;12.094;2022-09-11T05:37:11;19.40;51.20
18287;DHT22;9269;50.838;12.094;2022-09-11T05:39:41;19.40;50.90
18287;DHT22;9269;50.838;12.094;2022-09-11T05:42:09;19.50;50.80
18287;DHT22;9269;50.838;12.094;2022-09-11T05:44:37;19.50;51.60
18287;DHT22;9269;50.838;12.094;2022-09-11T05:47:07;19.50;51.80
18287;DHT22;9269;50.838;12.094;2022-09-11T05:49:35;19.60;51.80
18287;DHT22;9269;50.838;12.094;2022-09-11T05:52:03;19.50;51.50
18287;DHT22;9269;50.838;12.094;2022-09-11T05:54:31;19.60;51.20
18287;DHT22;9269;50.838;12.094;2022-09-11T05:57:01;19.50;51.30
18287;DHT22;9269;50.838;12.094;2022-09-11T05:59:33;19.60;51.00
18287;DHT22;9269;50.838;12.094;2022-09-11T06:02:03;19.60;50.90
18287;DHT22;9269;50.838;12.094;2022-09-11T06:04:31;19.60;51.00
18287;DHT22;9269;50.838;12.094;2022-09-11T06:06:59;19.70;51.10
18287;DHT22;9269;50.838;12.094;2022-09-11T06:09:28;19.60;51.10
18287;DHT22;9269;50.838;12.094;2022-09-11T06:11:56;19.70;51.20
18287;DHT22;9269;50.838;12.094;2022-09-11T06:14:26;19.70;50.90
18287;DHT22;9269;50.838;12.094;2022-09-11T06:16:55;19.80;51.10
18287;DHT22;9269;50.838;12.094;2022-09-11T06:19:24;19.80;51.20
18287;DHT22;9269;50.838;12.094;2022-09-11T06:21:53;19.80;51.30
18287;DHT22;9269;50.838;12.094;2022-09-11T06:24:22;19.80;51.20
18287;DHT22;9269;50.838;12.094;2022-09-11T06:26:51;19.90;51.30
18287;DHT22;9269;50.838;12.094;2022-09-11T06:29:20;19.90;51.30
18287;DHT22;9269;50.838;12.094;2022-09-11T06:31:50;19.80;51.30
18287;DHT22;9269;50.838;12.094;2022-09-11T06:34:19;19.90;50.90
18287;DHT22;9269;50.838;12.094;2022-09-11T06:36:48;19.90;51.00
18287;DHT22;9269;50.838;12.094;2022-09-11T06:39:18;20.00;50.90
18287;DHT22;9269;50.838;12.094;2022-09-11T06:41:48;20.00;50.60
18287;DHT22;9269;50.838;12.094;2022-09-11T06:44:17;20.00;50.90
18287;DHT22;9269;50.838;12.094;2022-09-11T06:46:45;20.10;50.50
18287;DHT22;9269;50.838;12.094;2022-09-11T06:49:16;20.10;50.80
18287;DHT22;9269;50.838;12.094;2022-09-11T06:51:45;20.10;50.90
18287;DHT22;9269;50.838;12.094;2022-09-11T06:54:16;20.10;51.10
18287;DHT22;9269;50.838;12.094;2022-09-11T06:56:45;20.10;51.40
18287;DHT22;9269;50.838;12.094;2022-09-11T06:59:14;20.10;51.10
18287;DHT22;9269;50.838;12.094;2022-09-11T07:01:43;20.10;50.90
18287;DHT22;9269;50.838;12.094;2022-09-11T07:04:11;20.20;50.80
18287;DHT22;9269;50.838;12.094;2022-09-11T07:06:41;20.10;51.10
18287;DHT22;9269;50.838;12.094;2022-09-11T07:09:10;20.10;51.30
18287;DHT22;9269;50.838;12.094;2022-09-11T07:11:38;20.10;51.40
18287;DHT22;9269;50.838;12.094;2022-09-11T07:14:09;20.10;51.60
18287;DHT22;9269;50.838;12.094;2022-09-11T07:16:38;20.10;51.40
18287;DHT22;9269;50.838;12.094;2022-09-11T07:19:06;20.10;51.60
18287;DHT22;9269;50.838;12.094;2022-09-11T07:21:36;20.10;51.60
18287;DHT22;9269;50.838;12.094;2022-09-11T07:24:08;20.00;51.70
18287;DHT22;9269;50.838;12.094;2022-09-11T07:26:37;20.00;51.40
18287;DHT22;9269;50.838;12.094;2022-09-11T07:29:06;20.00;51.40
18287;DHT22;9269;50.838;12.094;2022-09-11T07:31:38;20.00;51.20
18287;DHT22;9269;50.838;12.094;2022-09-11T07:34:07;20.00;51.90
18287;DHT22;9269;50.838;12.094;2022-09-11T07:36:36;20.10;51.50
18287;DHT22;9269;50.838;12.094;2022-09-11T07:39:04;20.10;52.00
18287;DHT22;9269;50.838;12.094;2022-09-11T07:41:34;20.10;52.00
18287;DHT22;9269;50.838;12.094;2022-09-11T07:44:02;20.10;52.20
18287;DHT22;9269;50.838;12.094;2022-09-11T07:46:34;20.00;52.10
18287;DHT22;9269;50.838;12.094;2022-09-11T07:49:06;20.20;52.20
18287;DHT22;9269;50.838;12.094;2022-09-11T07:51:36;20.10;52.40
18287;DHT22;9269;50.838;12.094;2022-09-11T07:54:05;20.10;52.00
18287;DHT22;9269;50.838;12.094;2022-09-11T07:56:35;20.00;52.90
18287;DHT22;9269;50.838;12.094;2022-09-11T07:59:06;20.00;52.70
18287;DHT22;9269;50.838;12.094;2022-09-11T08:01:35;20.00;52.50
18287;DHT22;9269;50.838;12.094;2022-09-11T08:04:06;20.10;52.90
18287;DHT22;9269;50.838;12.094;2022-09-11T08:06:36;20.10;53.00
18287;DHT22;9269;50.838;12.094;2022-09-11T08:09:06;20.20;52.90
18287;DHT22;9269;50.838;12.094;2022-09-11T08:11:37;20.20;52.70
18287;DHT22;9269;50.838;12.094;2022-09-11T08:14:07;20.20;52.90
18287;DHT22;9269;50.838;12.094;2022-09-11T08:16:36;20.30;52.90
18287;DHT22;9269;50.838;12.094;2022-09-11T08:19:05;20.30;52.60
18287;DHT22;9269;50.838;12.094;2022-09-11T08:21:34;20.30;53.00
18287;DHT22;9269;50.838;12.094;2022-09-11T08:24:02;20.40;53.10
18287;DHT22;9269;50.838;12.094;2022-09-11T08:26:36;20.40;52.70
18287;DHT22;9269;50.838;12.094;2022-09-11T08:29:05;20.50;52.60
18287;DHT22;9269;50.838;12.094;2022-09-11T08:31:33;20.50;53.00
18287;DHT22;9269;50.838;12.094;2022-09-11T08:34:02;20.60;52.70
18287;DHT22;9269;50.838;12.094;2022-09-11T08:36:31;20.60;52.70
18287;DHT22;9269;50.838;12.094;2022-09-11T08:38:59;20.60;53.00
18287;DHT22;9269;50.838;12.094;2022-09-11T08:41:34;20.60;53.00
18287;DHT22;9269;50.838;12.094;2022-09-11T08:44:12;20.80;52.70
18287;DHT22;9269;50.838;12.094;2022-09-11T08:46:47;20.80;53.00
18287;DHT22;9269;50.838;12.094;2022-09-11T08:49:23;20.70;52.60
18287;DHT22;9269;50.838;12.094;2022-09-11T08:51:55;20.80;53.00
18287;DHT22;9269;50.838;12.094;2022-09-11T08:54:28;20.70;52.60
18287;DHT22;9269;50.838;12.094;2022-09-11T08:57:06;20.70;52.50
18287;DHT22;9269;50.838;12.094;2022-09-11T08:59:53;20.80;52.50
18287;DHT22;9269;50.838;12.094;2022-09-11T09:02:50;20.70;52.60
18287;DHT22;9269;50.838;12.094;2022-09-11T09:05:27;20.70;52.60
18287;DHT22;9269;50.838;12.094;2022-09-11T09:08:13;20.80;52.10
18287;DHT22;9269;50.838;12.094;2022-09-11T09:10:50;20.70;51.90
18287;DHT22;9269;50.838;12.094;2022-09-11T09:13:39;20.70;51.90
18287;DHT22;9269;50.838;12.094;2022-09-11T09:16:24;20.80;52.00
18287;DHT22;9269;50.838;12.094;2022-09-11T09:19:04;20.80;51.80
18287;DHT22;9269;50.838;12.094;2022-09-11T09:21:37;20.90;52.00
18287;DHT22;9269;50.838;12.094;2022-09-11T09:24:13;20.90;50.50
18287;DHT22;9269;50.838;12.094;2022-09-11T09:26:49;21.00;50.40
18287;DHT22;9269;50.838;12.094;2022-09-11T09:29:21;20.90;50.50
18287;DHT22;9269;50.838;12.094;2022-09-11T09:31:57;21.10;50.20
18287;DHT22;9269;50.838;12.094;2022-09-11T09:34:30;21.00;50.30
18287;DHT22;9269;50.838;12.094;2022-09-11T09:37:05;21.10;50.80
18287;DHT22;9269;50.838;12.094;2022-09-11T09:39:39;21.10;50.00
18287;DHT22;9269;50.838;12.094;2022-09-11T09:42:27;21.10;50.20
18287;DHT22;9269;50.838;12.094;2022-09-11T09:45:17;21.00;49.90
18287;DHT22;9269;50.838;12.094;2022-09-11T09:47:49;21.20;49.90
18287;DHT22;9269;50.838;12.094;2022-09-11T09:50:23;21.20;49.90
18287;DHT22;9269;50.838;12.094;2022-09-11T09:53:01;21.20;49.90
18287;DHT22;9269;50.838;12.094;2022-09-11T09:55:31;21.10;49.90
18287;DHT22;9269;50.838;12.094;2022-09-11T09:58:01;21.20;49.80
18287;DHT22;9269;50.838;12.094;2022-09-11T10:00:31;21.20;50.10
18287;DHT22;9269;50.838;12.094;2022-09-11T10:03:16;21.20;49.90
18287;DHT22;9269;50.838;12.094;2022-09-11T10:05:46;21.20;50.10
18287;DHT22;9269;50.838;12.094;2022-09-11T10:08:29;21.20;50.20
18287;DHT22;9269;50.838;12.094;2022-09-11T10:11:01;21.30;49.90
18287;DHT22;9269;50.838;12.094;2022-09-11T10:13:32;21.40;49.90
18287;DHT22;9269;50.838;12.094;2022-09-11T10:16:04;21.40;50.40
18287;DHT22;9269;50.838;12.094;2022-09-11T10:18:48;21.40;49.80
18287;DHT22;9269;50.838;12.094;2022-09-11T10:21:23;21.50;50.00
18287;DHT22;9269;50.838;12.094;2022-09-11T10:23:58;21.50;50.00
18287;DHT22;9269;50.838;12.094;2022-09-11T10:26:33;21.60;49.50
18287;DHT22;9269;50.838;12.094;2022-09-11T10:29:06;21.70;49.40
18287;DHT22;9269;50.838;12.094;2022-09-11T10:31:38;21.90;49.30
18287;DHT22;9269;50.838;12.094;2022-09-11T10:34:14;22.00;49.20
18287;DHT22;9269;50.838;12.094;2022-09-11T10:36:54;22.10;48.80
18287;DHT22;9269;50.838;12.094;2022-09-11T10:39:25;22.20;48.80
18287;DHT22;9269;50.838;12.094;2022-09-11T10:41:56;22.30;49.00
18287;DHT22;9269;50.838;12.094;2022-09-11T10:44:26;22.40;48.50
18287;DHT22;9269;50.838;12.094;2022-09-11T10:47:02;22.50;48.30
18287;DHT22;9269;50.838;12.094;2022-09-11T10:49:35;22.70;48.30
18287;DHT22;9269;50.838;12.094;2022-09-11T10:52:16;23.00;47.50
18287;DHT22;9269;50.838;12.094;2022-09-11T10:54:57;23.30;47.40
18287;DHT22;9269;50.838;12.094;2022-09-11T10:57:31;23.50;46.60
18287;DHT22;9269;50.838;12.094;2022-09-11T11:00:11;23.80;45.30
18287;DHT22;9269;50.838;12.094;2022-09-11T11:02:43;23.80;44.80
18287;DHT22;9269;50.838;12.094;2022-09-11T11:05:19;23.80;45.10
18287;DHT22;9269;50.838;12.094;2022-09-11T11:08:14;23.80;44.50
18287;DHT22;9269;50.838;12.094;2022-09-11T11:10:53;23.80;44.10
18287;DHT22;9269;50.838;12.094;2022-09-11T11:13:37;24.00;43.80
18287;DHT22;9269;50.838;12.094;2022-09-11T11:16:13;24.10;43.90
18287;DHT22;9269;50.838;12.094;2022-09-11T11:18:52;24.10;43.60
18287;DHT22;9269;50.838;12.094;2022-09-11T11:21:35;24.00;43.60
18287;DHT22;9269;50.838;12.094;2022-09-11T11:24:16;24.00;43.10
18287;DHT22;9269;50.838;12.094;2022-09-11T11:27:02;24.00;43.10
18287;DHT22;9269;50.838;12.094;2022-09-11T11:29:47;23.90;42.60
18287;DHT22;9269;50.838;12.094;2022-09-11T11:32:30;23.90;42.80
18287;DHT22;9269;50.838;12.094;2022-09-11T11:35:20;24.00;42.80
18287;DHT22;9269;50.838;12.094;2022-09-11T11:37:54;24.10;42.60
18287;DHT22;9269;50.838;12.094;2022-09-11T11:40:30;23.90;42.80
18287;DHT22;9269;50.838;12.094;2022-09-11T11:43:03;23.90;42.80
18287;DHT22;9269;50.838;12.094;2022-09-11T11:45:36;23.80;42.30
18287;DHT22;9269;50.838;12.094;2022-09-11T11:48:12;23.70;42.90
18287;DHT22;9269;50.838;12.094;2022-09-11T11:50:43;23.60;42.80
18287;DHT22;9269;50.838;12.094;2022-09-11T11:53:21;23.80;42.70
18287;DHT22;9269;50.838;12.094;2022-09-11T11:55:58;23.70;42.50
18287;DHT22;9269;50.838;12.094;2022-09-11T11:58:40;23.70;42.80
18287;DHT22;9269;50.838;12.094;2022-09-11T12:01:16;23.90;42.30
18287;DHT22;9269;50.838;12.094;2022-09-11T12:03:50;24.00;42.10
18287;DHT22;9269;50.838;12.094;2022-09-11T12:06:20;24.10;42.00
18287;DHT22;9269;50.838;12.094;2022-09-11T12:08:50;24.10;42.00
18287;DHT22;9269;50.838;12.094;2022-09-11T12:11:25;24.00;42.20
18287;DHT22;9269;50.838;12.094;2022-09-11T12:13:56;23.90;41.80
18287;DHT22;9269;50.838;12.094;2022-09-11T12:16:26;23.90;41.90
18287;DHT22;9269;50.838;12.094;2022-09-11T12:19:13;23.90;42.40
18287;DHT22;9269;50.838;12.094;2022-09-11T12:22:10;23.70;42.10
18287;DHT22;9269;50.838;12.094;2022-09-11T12:24:53;23.70;42.00
18287;DHT22;9269;50.838;12.094;2022-09-11T12:27:51;23.60;41.90
18287;DHT22;9269;50.838;12.094;2022-09-11T12:30:23;23.70;42.50
18287;DHT22;9269;50.838;12.094;2022-09-11T12:32:52;23.70;42.10
18287;DHT22;9269;50.838;12.094;2022-09-11T12:35:28;23.70;42.00
18287;DHT22;9269;50.838;12.094;2022-09-11T12:38:10;23.80;41.50
18287;DHT22;9269;50.838;12.094;2022-09-11T12:40:48;23.90;41.40
18287;DHT22;9269;50.838;12.094;2022-09-11T12:43:46;24.00;41.50
18287;DHT22;9269;50.838;12.094;2022-09-11T12:49:40;23.90;41.30
18287;DHT22;9269;50.838;12.094;2022-09-11T12:55:29;23.80;41.00
18287;DHT22;9269;50.838;12.094;2022-09-11T12:58:03;23.60;41.00
18287;DHT22;9269;50.838;12.094;2022-09-11T13:00:36;23.50;42.40
18287;DHT22;9269;50.838;12.094;2022-09-11T13:03:13;23.30;42.50
18287;DHT22;9269;50.838;12.094;2022-09-11T13:05:43;23.30;43.00
18287;DHT22;9269;50.838;12.094;2022-09-11T13:08:22;23.20;42.90
18287;DHT22;9269;50.838;12.094;2022-09-11T13:10:52;23.10;42.60
18287;DHT22;9269;50.838;12.094;2022-09-11T13:13:41;23.10;43.10
18287;DHT22;9269;50.838;12.094;2022-09-11T13:16:17;23.00;42.50
18287;DHT22;9269;50.838;12.094;2022-09-11T13:18:46;23.00;42.30
18287;DHT22;9269;50.838;12.094;2022-09-11T13:21:15;22.90;42.50
18287;DHT22;9269;50.838;12.094;2022-09-11T13:23:50;23.00;42.40
18287;DHT22;9269;50.838;12.094;2022-09-11T13:26:24;23.10;42.60
18287;DHT22;9269;50.838;12.094;2022-09-11T13:28:56;23.10;42.50
18287;DHT22;9269;50.838;12.094;2022-09-11T13:31:30;23.20;41.70
18287;DHT22;9269;50.838;12.094;2022-09-11T13:34:02;23.20;41.90
18287;DHT22;9269;50.838;12.094;2022-09-11T13:36:33;23.20;42.10
18287;DHT22;9269;50.838;12.094;2022-09-11T13:39:03;23.30;42.00
18287;DHT22;9269;50.838;12.094;2022-09-11T13:41:36;23.50;41.40
18287;DHT22;9269;50.838;12.094;2022-09-11T13:44:10;23.40;41.00
18287;DHT22;9269;50.838;12.094;2022-09-11T13:46:51;23.50;40.70
18287;DHT22;9269;50.838;12.094;2022-09-11T13:49:27;23.60;40.50
18287;DHT22;9269;50.838;12.094;2022-09-11T13:51:58;23.60;40.70
18287;DHT22;9269;50.838;12.094;2022-09-11T13:54:30;23.50;40.50
18287;DHT22;9269;50.838;12.094;2022-09-11T13:57:13;23.60;40.30
18287;DHT22;9269;50.838;12.094;2022-09-11T13:59:48;23.50;40.00
18287;DHT22;9269;50.838;12.094;2022-09-11T14:02:36;23.50;40.50
18287;DHT22;9269;50.838;12.094;2022-09-11T14:05:11;23.40;40.40
18287;DHT22;9269;50.838;12.094;2022-09-11T14:07:44;23.40;40.40
18287;DHT22;9269;50.838;12.094;2022-09-11T14:10:18;23.50;40.60
18287;DHT22;9269;50.838;12.094;2022-09-11T14:12:52;23.40;40.50
18287;DHT22;9269;50.838;12.094;2022-09-11T14:15:29;23.40;41.50
18287;DHT22;9269;50.838;12.094;2022-09-11T14:18:01;23.40;40.80
18287;DHT22;9269;50.838;12.094;2022-09-11T14:20:30;23.30;40.70
18287;DHT22;9269;50.838;12.094;2022-09-11T14:23:03;23.40;40.60
18287;DHT22;9269;50.838;12.094;2022-09-11T14:25:32;23.50;40.50
18287;DHT22;9269;50.838;12.094;2022-09-11T14:28:00;23.60;40.70
18287;DHT22;9269;50.838;12.094;2022-09-11T14:30:32;23.60;40.90
18287;DHT22;9269;50.838;12.094;2022-09-11T14:33:22;23.60;40.70
18287;DHT22;9269;50.838;12.094;2022-09-11T14:35:53;23.60;40.60
18287;DHT22;9269;50.838;12.094;2022-09-11T14:38:26;23.50;40.70
18287;DHT22;9269;50.838;12.094;2022-09-11T14:40:55;23.50;40.70
18287;DHT22;9269;50.838;12.094;2022-09-11T14:43:32;23.30;41.00
18287;DHT22;9269;50.838;12.094;2022-09-11T14:46:09;23.30;40.90
18287;DHT22;9269;50.838;12.094;2022-09-11T14:48:38;23.30;41.20
18287;DHT22;9269;50.838;12.094;2022-09-11T14:51:10;23.20;41.40
18287;DHT22;9269;50.838;12.094;2022-09-11T14:53:39;23.30;40.80
18287;DHT22;9269;50.838;12.094;2022-09-11T14:56:09;23.20;41.10
18287;DHT22;9269;50.838;12.094;2022-09-11T14:58:38;23.20;41.50
18287;DHT22;9269;50.838;12.094;2022-09-11T15:01:07;23.30;41.50
18287;DHT22;9269;50.838;12.094;2022-09-11T15:03:37;23.30;41.10
18287;DHT22;9269;50.838;12.094;2022-09-11T15:06:17;23.20;41.10
18287;DHT22;9269;50.838;12.094;2022-09-11T15:08:46;23.20;41.50
18287;DHT22;9269;50.838;12.094;2022-09-11T15:11:15;23.30;41.40
18287;DHT22;9269;50.838;12.094;2022-09-11T15:13:43;23.20;41.10
18287;DHT22;9269;50.838;12.094;2022-09-11T15:16:32;23.10;41.60
18287;DHT22;9269;50.838;12.094;2022-09-11T15:19:02;23.10;41.80
18287;DHT22;9269;50.838;12.094;2022-09-11T15:21:31;23.10;41.80
18287;DHT22;9269;50.838;12.094;2022-09-11T15:24:04;23.00;41.70
18287;DHT22;9269;50.838;12.094;2022-09-11T15:26:33;23.00;41.70
18287;DHT22;9269;50.838;12.094;2022-09-11T15:29:02;23.00;42.00
18287;DHT22;9269;50.838;12.094;2022-09-11T15:31:37;23.00;41.80
18287;DHT22;9269;50.838;12.094;2022-09-11T15:34:09;22.90;42.00
18287;DHT22;9269;50.838;12.094;2022-09-11T15:36:38;22.90;41.90
18287;DHT22;9269;50.838;12.094;2022-09-11T15:39:11;22.90;42.00
18287;DHT22;9269;50.838;12.094;2022-09-11T15:41:41;22.90;42.20
18287;DHT22;9269;50.838;12.094;2022-09-11T15:44:18;22.90;41.90
18287;DHT22;9269;50.838;12.094;2022-09-11T15:46:47;22.70;41.90
18287;DHT22;9269;50.838;12.094;2022-09-11T15:49:19;22.90;41.90
18287;DHT22;9269;50.838;12.094;2022-09-11T15:51:48;22.90;41.80
18287;DHT22;9269;50.838;12.094;2022-09-11T15:54:17;22.90;42.00
18287;DHT22;9269;50.838;12.094;2022-09-11T15:56:48;22.80;42.10
18287;DHT22;9269;50.838;12.094;2022-09-11T15:59:16;22.80;42.10
18287;DHT22;9269;50.838;12.094;2022-09-11T16:01:45;22.80;42.10
18287;DHT22;9269;50.838;12.094;2022-09-11T16:04:17;22.90;41.90
18287;DHT22;9269;50.838;12.094;2022-09-11T16:06:49;22.80;42.20
18287;DHT22;9269;50.838;12.094;2022-09-11T16:09:19;22.80;42.20
18287;DHT22;9269;50.838;12.094;2022-09-11T16:11:49;22.90;42.30
18287;DHT22;9269;50.838;12.094;2022-09-11T16:14:22;22.80;42.20
18287;DHT22;9269;50.838;12.094;2022-09-11T16:16:52;22.80;42.50
18287;DHT22;9269;50.838;12.094;2022-09-11T16:19:21;22.80;42.20